This is the latest recevied weather packets stored in our database for station/object EA3KZ-1. If no packets are shown the sender has not sent any weather packets the latest 1 day(s).
| Time | Temp. | Humidity | Pressure | Rain* | Wind** | Luminosity | Snow |
|---|---|---|---|---|---|---|---|
| 1778105771 | 12.78° C | 84% | 1009.3 hPa | 0 mm | - | - | - |
| 1778103963 | 12.78° C | 83% | 1009.1 hPa | 0 mm | - | - | - |
| 1778102758 | 13.33° C | 83% | 1009.2 hPa | 0 mm | - | - | - |
| 1778102155 | 13.33° C | 82% | 1009.2 hPa | 0 mm | - | - | - |
| 1778100950 | 13.89° C | 79% | 1009.1 hPa | 0 mm | - | - | - |
| 1778099745 | 14.44° C | 77% | 1008.7 hPa | 0 mm | - | - | - |
| 1778099142 | 14.44° C | 78% | 1008.7 hPa | 0 mm | - | - | - |
| 1778097931 | 14.44° C | 78% | 1008.4 hPa | 0 mm | - | - | - |
| 1778093757 | 15.56° C | 71% | 1007.2 hPa | 0 mm | - | - | - |
| 1778086557 | 18.89° C | 54% | 1006 hPa | 0 mm | - | - | - |
| 1778085352 | 18.33° C | 55% | 1005.9 hPa | 0 mm | - | - | - |
| 1778084743 | 18.33° C | 55% | 1005.9 hPa | 0 mm | - | - | - |
| 1778083533 | 19.44° C | 54% | 1005.7 hPa | 0 mm | - | - | - |
| 1778077543 | 20° C | 48% | 1006 hPa | 0 mm | - | - | - |
| 1778076333 | 20° C | 46% | 1006.2 hPa | 0 mm | - | - | - |
| 1778070953 | 20° C | 45% | 1006.7 hPa | 0 mm | - | - | - |
| 1778067928 | 18.89° C | 46% | 1007 hPa | 0 mm | - | - | - |
| 1778063753 | 17.78° C | 58% | 1007.5 hPa | 0 mm | - | - | - |
| 1778063144 | 17.22° C | 57% | 1007.6 hPa | 0 mm | - | - | - |
| 1778060729 | 15.56° C | 61% | 1007.9 hPa | 0 mm | - | - | - |
| 1778060120 | 15° C | 61% | 1007.9 hPa | 0 mm | - | - | - |
| 1778058915 | 15° C | 60% | 1007.8 hPa | 0 mm | - | - | - |
| 1778056553 | 14.44° C | 60% | 1007.6 hPa | 0 mm | - | - | - |
| 1778055342 | 13.89° C | 64% | 1007.5 hPa | 0 mm | - | - | - |
| 1778054739 | 13.33° C | 64% | 1007.5 hPa | 0 mm | - | - | - |
* Rain latest hour (hover to see other rain measurements)
** Current wind speed in m/s (hover to see current wind gust speed)